createdAt,value
2019-04-10T00:01:43.156Z,5.67
2019-04-10T00:04:12.551Z,5.23
2019-04-10T00:06:41.657Z,5.80
2019-04-10T00:09:10.600Z,3.87
2019-04-10T00:11:39.120Z,3.67
2019-04-10T00:14:08.261Z,3.90
2019-04-10T00:16:36.716Z,3.43
2019-04-10T00:19:05.180Z,3.13
2019-04-10T00:21:33.620Z,2.53
2019-04-10T00:24:02.103Z,2.67
2019-04-10T00:26:30.541Z,2.73
2019-04-10T00:29:00.145Z,2.30
2019-04-10T00:31:29.820Z,2.33
2019-04-10T00:33:58.995Z,2.10
2019-04-10T00:36:27.550Z,1.63
2019-04-10T00:38:56.006Z,2.90
2019-04-10T00:41:24.446Z,2.53
2019-04-10T00:43:53.096Z,3.23
2019-04-10T00:46:22.138Z,3.60
2019-04-10T00:48:50.964Z,3.47
2019-04-10T00:51:19.441Z,2.17
2019-04-10T00:53:47.923Z,2.07
2019-04-10T00:56:16.626Z,1.73
2019-04-10T00:58:45.771Z,1.83
2019-04-10T01:01:15.910Z,2.40
2019-04-10T01:03:46.642Z,1.60
2019-04-10T01:06:15.859Z,1.93
2019-04-10T01:08:44.752Z,2.07
2019-04-10T01:11:13.247Z,1.97
2019-04-10T01:13:41.931Z,2.20
2019-04-10T01:16:11.340Z,1.47
2019-04-10T01:18:39.972Z,1.90
2019-04-10T01:21:08.433Z,1.60
2019-04-10T01:23:38.006Z,1.57
2019-04-10T01:26:07.237Z,1.53
2019-04-10T01:28:36.707Z,1.80
2019-04-10T01:31:05.355Z,1.53
2019-04-10T01:33:33.831Z,1.40
2019-04-10T01:36:02.762Z,1.63
2019-04-10T01:38:31.485Z,1.50
2019-04-10T01:40:59.930Z,2.20
2019-04-10T01:43:28.400Z,2.17
2019-04-10T01:45:57.868Z,1.67
2019-04-10T01:48:26.437Z,1.10
2019-04-10T01:50:54.917Z,1.83
2019-04-10T01:53:23.807Z,1.77
2019-04-10T01:55:53.439Z,1.50
2019-04-10T01:58:23.240Z,1.40
2019-04-10T02:01:00.261Z,2.00
2019-04-10T02:03:29.840Z,1.90
2019-04-10T02:05:58.360Z,1.83
2019-04-10T02:08:26.836Z,1.67
2019-04-10T02:10:56.469Z,1.60
2019-04-10T02:13:25.452Z,1.60
2019-04-10T02:15:54.457Z,1.47
2019-04-10T02:18:23.489Z,1.50
2019-04-10T02:20:52.030Z,2.20
2019-04-10T02:23:20.703Z,1.33
2019-04-10T02:25:49.446Z,1.60
2019-04-10T02:28:18.607Z,1.33
2019-04-10T02:30:47.874Z,2.03
2019-04-10T02:33:17.790Z,1.40
2019-04-10T02:35:47.715Z,1.93
2019-04-10T02:38:33.815Z,1.87
2019-04-10T02:40:47.526Z,1.80
2019-04-10T02:43:16.307Z,1.63
2019-04-10T02:45:44.926Z,1.40
2019-04-10T02:48:14.900Z,1.33
2019-04-10T02:50:44.786Z,1.60
2019-04-10T02:53:15.155Z,2.20
2019-04-10T02:55:43.793Z,1.60
2019-04-10T02:58:14.075Z,1.30
2019-04-10T03:00:43.989Z,1.47
2019-04-10T03:03:13.896Z,1.80
2019-04-10T03:05:42.702Z,1.50
2019-04-10T03:08:13.020Z,1.50
2019-04-10T03:10:48.768Z,1.73
2019-04-10T03:13:13.166Z,1.60
2019-04-10T03:15:43.378Z,2.10
2019-04-10T03:18:12.712Z,1.80
2019-04-10T03:20:42.621Z,2.27
2019-04-10T03:23:11.599Z,1.60
2019-04-10T03:25:41.294Z,1.60
2019-04-10T03:28:11.162Z,1.73
2019-04-10T03:30:41.545Z,1.40
2019-04-10T03:33:26.578Z,1.50
2019-04-10T03:35:52.776Z,1.90
2019-04-10T03:38:21.707Z,1.73
2019-04-10T03:40:51.327Z,1.30
2019-04-10T03:43:19.996Z,1.53
2019-04-10T03:45:48.675Z,1.90
2019-04-10T03:48:17.085Z,1.70
2019-04-10T03:50:45.929Z,1.40
2019-04-10T03:53:14.410Z,1.47
2019-04-10T03:55:43.218Z,1.90
2019-04-10T03:58:11.812Z,2.03
2019-04-10T04:00:40.482Z,3.00
2019-04-10T04:03:08.918Z,1.77
2019-04-10T04:05:37.395Z,1.60
2019-04-10T04:08:05.959Z,1.73
2019-04-10T04:10:35.050Z,1.70
2019-04-10T04:13:05.765Z,1.57
2019-04-10T04:15:33.825Z,1.90
2019-04-10T04:18:02.623Z,1.57
2019-04-10T04:20:31.078Z,1.63
2019-04-10T04:22:59.542Z,1.83
2019-04-10T04:25:27.990Z,1.70
2019-04-10T04:27:56.835Z,2.23
2019-04-10T04:30:25.299Z,2.30
2019-04-10T04:32:53.952Z,1.87
2019-04-10T04:35:22.427Z,1.73
2019-04-10T04:37:50.885Z,1.47
2019-04-10T04:40:19.686Z,1.83
2019-04-10T04:42:49.388Z,1.73
2019-04-10T04:45:17.880Z,1.20
2019-04-10T04:47:46.358Z,1.93
2019-04-10T04:50:15.695Z,1.30
2019-04-10T04:52:44.253Z,2.17
2019-04-10T04:55:12.737Z,1.83
2019-04-10T04:57:42.321Z,2.17
2019-04-10T05:00:10.819Z,1.70
2019-04-10T05:02:39.301Z,2.43
2019-04-10T05:05:08.769Z,1.90
2019-04-10T05:07:37.640Z,2.00
2019-04-10T05:10:07.049Z,1.90
2019-04-10T05:12:36.002Z,2.00
2019-04-10T05:15:04.568Z,2.13
2019-04-10T05:17:33.131Z,2.80
2019-04-10T05:20:01.559Z,2.30
2019-04-10T05:22:30.003Z,2.70
2019-04-10T05:24:58.568Z,2.70
2019-04-10T05:27:26.988Z,3.53
2019-04-10T05:29:55.647Z,3.70
2019-04-10T05:32:24.080Z,4.73
2019-04-10T05:34:52.545Z,3.73
2019-04-10T05:37:21.303Z,3.50
2019-04-10T05:39:51.131Z,3.57
2019-04-10T05:42:20.596Z,2.57
2019-04-10T05:44:50.109Z,2.83
2019-04-10T05:47:19.256Z,2.43
2019-04-10T05:49:49.059Z,2.10
2019-04-10T05:52:18.192Z,2.30
2019-04-10T05:54:47.322Z,3.47
2019-04-10T05:57:15.924Z,2.47
2019-04-10T05:59:44.350Z,2.90
2019-04-10T06:02:13.842Z,2.20
2019-04-10T06:04:43.293Z,2.40
2019-04-10T06:07:12.745Z,2.70
2019-04-10T06:09:52.012Z,2.10
2019-04-10T06:12:11.884Z,2.07
2019-04-10T06:14:40.404Z,2.57
2019-04-10T06:17:10.039Z,3.27
2019-04-10T06:19:38.632Z,2.50
2019-04-10T06:22:09.653Z,2.20
2019-04-10T06:24:38.399Z,2.20
2019-04-10T06:27:08.119Z,2.17
2019-04-10T06:29:37.182Z,2.13
2019-04-10T06:32:05.796Z,2.47
2019-04-10T06:34:34.326Z,2.33
2019-04-10T06:37:03.996Z,2.20
2019-04-10T06:39:33.110Z,2.67
2019-04-10T06:42:02.533Z,2.10
2019-04-10T06:44:32.107Z,2.37
2019-04-10T06:47:00.671Z,2.50
2019-04-10T06:49:29.215Z,2.23
2019-04-10T06:51:57.792Z,1.90
2019-04-10T06:54:26.837Z,2.50
2019-04-10T06:56:56.502Z,2.50
2019-04-10T06:59:26.191Z,2.67
2019-04-10T07:01:56.697Z,2.27
2019-04-10T07:04:25.560Z,2.17
2019-04-10T07:07:01.729Z,2.10
2019-04-10T07:09:27.100Z,1.90
2019-04-10T07:11:59.820Z,2.20
2019-04-10T07:14:26.792Z,2.10
2019-04-10T07:16:55.356Z,2.37
2019-04-10T07:19:24.115Z,2.40
2019-04-10T07:21:52.643Z,2.30
2019-04-10T07:24:21.095Z,2.10
2019-04-10T07:26:50.912Z,2.47
2019-04-10T07:29:21.067Z,2.10
2019-04-10T07:31:50.808Z,2.70
2019-04-10T07:34:23.997Z,1.90
2019-04-10T07:36:49.797Z,2.40
2019-04-10T07:39:18.398Z,1.80
2019-04-10T07:41:47.363Z,2.27
2019-04-10T07:44:15.912Z,2.00
2019-04-10T07:46:44.472Z,2.17
2019-04-10T07:49:12.968Z,2.33
2019-04-10T07:51:42.487Z,2.30
2019-04-10T07:54:12.038Z,3.03
2019-04-10T07:56:41.817Z,2.73
2019-04-10T07:59:10.938Z,3.20
2019-04-10T08:01:40.578Z,2.83
2019-04-10T08:04:10.455Z,2.20
2019-04-10T08:06:39.556Z,1.93
2019-04-10T08:09:08.629Z,1.93
2019-04-10T08:11:38.020Z,2.00
2019-04-10T08:14:08.248Z,2.57
2019-04-10T08:16:36.708Z,2.53
2019-04-10T08:19:05.176Z,2.23
2019-04-10T08:21:33.960Z,2.37
2019-04-10T08:24:02.563Z,2.30
2019-04-10T08:26:31.001Z,1.93
2019-04-10T08:28:59.447Z,2.33
2019-04-10T08:31:28.715Z,2.47
2019-04-10T08:33:57.271Z,2.50
2019-04-10T08:36:25.827Z,2.13
2019-04-10T08:38:55.007Z,2.10
2019-04-10T08:41:23.625Z,2.60
2019-04-10T08:43:52.253Z,2.17
2019-04-10T08:46:21.816Z,2.20
2019-04-10T08:48:50.329Z,2.90
2019-04-10T08:51:19.217Z,1.60
2019-04-10T08:53:48.845Z,2.20
2019-04-10T08:56:18.361Z,2.30
2019-04-10T08:58:48.184Z,2.53
2019-04-10T09:01:17.431Z,3.00
2019-04-10T09:03:46.793Z,2.13
2019-04-10T09:06:15.360Z,2.27
2019-04-10T09:08:43.826Z,2.23
2019-04-10T09:11:12.305Z,3.30
2019-04-10T09:13:41.017Z,2.13
2019-04-10T09:16:10.053Z,2.20
2019-04-10T09:18:39.061Z,2.10
2019-04-10T09:21:07.570Z,2.20
2019-04-10T09:23:44.400Z,1.50
2019-04-10T09:26:06.237Z,1.57
2019-04-10T09:28:34.869Z,1.67
2019-04-10T09:31:03.343Z,2.10
2019-04-10T09:33:32.409Z,2.27
2019-04-10T09:36:01.027Z,2.17
2019-04-10T09:38:30.647Z,1.87
2019-04-10T09:40:59.175Z,2.77
2019-04-10T09:43:27.636Z,2.33
2019-04-10T09:45:56.084Z,1.77
2019-04-10T09:48:24.806Z,2.17
2019-04-10T09:50:53.334Z,1.87
2019-04-10T09:53:21.797Z,1.60
2019-04-10T09:55:50.266Z,1.80
2019-04-10T09:58:19.871Z,2.40
2019-04-10T10:00:48.416Z,1.70
2019-04-10T10:03:17.446Z,2.27
2019-04-10T10:05:46.648Z,2.50
2019-04-10T10:08:16.204Z,2.40
2019-04-10T10:10:45.018Z,2.07
2019-04-10T10:13:13.501Z,2.53
2019-04-10T10:15:43.107Z,1.87
2019-04-10T10:18:12.939Z,2.10
2019-04-10T10:20:41.491Z,2.20
2019-04-10T10:23:10.048Z,2.10
2019-04-10T10:25:39.453Z,2.00
2019-04-10T10:28:08.873Z,1.90
2019-04-10T10:30:37.750Z,1.83
2019-04-10T10:33:06.196Z,1.70
2019-04-10T10:35:35.529Z,2.10
2019-04-10T10:38:05.437Z,1.70
2019-04-10T10:40:34.055Z,1.67
2019-04-10T10:43:02.553Z,2.23
2019-04-10T10:45:31.147Z,2.20
2019-04-10T10:47:59.609Z,2.10
2019-04-10T10:50:29.004Z,1.90
2019-04-10T10:52:57.649Z,1.70
2019-04-10T10:55:26.028Z,2.30
2019-04-10T10:57:55.444Z,2.17
2019-04-10T11:00:25.132Z,2.23
2019-04-10T11:02:54.015Z,1.73
2019-04-10T11:05:23.154Z,2.27
2019-04-10T11:07:51.729Z,1.90
2019-04-10T11:10:24.029Z,2.20
2019-04-10T11:12:50.744Z,2.23
2019-04-10T11:15:20.216Z,1.93
2019-04-10T11:17:49.997Z,1.80
2019-04-10T11:20:19.860Z,1.80
2019-04-10T11:22:49.587Z,1.93
2019-04-10T11:25:18.275Z,1.97
2019-04-10T11:27:47.524Z,2.30
2019-04-10T11:30:16.195Z,1.97
2019-04-10T11:32:44.654Z,1.93
2019-04-10T11:35:13.442Z,1.77
2019-04-10T11:37:45.441Z,2.33
2019-04-10T11:40:15.815Z,1.83
2019-04-10T11:42:43.001Z,2.20
2019-04-10T11:45:14.408Z,2.20
2019-04-10T11:47:44.842Z,1.87
2019-04-10T11:50:17.878Z,2.47
2019-04-10T11:52:51.908Z,2.43
2019-04-10T11:55:19.941Z,2.27
2019-04-10T11:57:48.621Z,1.93
2019-04-10T12:00:19.838Z,2.50
2019-04-10T12:02:49.624Z,2.20
2019-04-10T12:08:10.687Z,1.93
2019-04-10T12:12:48.207Z,1.77
2019-04-10T12:15:17.258Z,2.20
2019-04-10T12:17:46.526Z,2.27
2019-04-10T12:20:16.644Z,2.30
2019-04-10T12:22:46.208Z,2.00
2019-04-10T12:25:15.042Z,2.00
2019-04-10T12:27:43.497Z,2.00
2019-04-10T12:30:13.145Z,2.00
2019-04-10T12:32:41.694Z,2.33
2019-04-10T12:35:10.943Z,2.00
2019-04-10T12:37:39.545Z,2.30
2019-04-10T12:40:08.021Z,2.00
2019-04-10T12:42:36.593Z,2.23
2019-04-10T12:45:06.395Z,2.33
2019-04-10T12:47:34.856Z,2.00
2019-04-10T12:50:03.818Z,1.83
2019-04-10T12:52:32.460Z,2.30
2019-04-10T12:55:01.984Z,2.70
2019-04-10T12:57:30.800Z,2.03
2019-04-10T13:00:03.682Z,2.30
2019-04-10T13:02:30.280Z,2.37
2019-04-10T13:04:58.844Z,2.50
2019-04-10T13:07:27.618Z,1.80
2019-04-10T13:09:58.169Z,2.47
2019-04-10T13:12:26.760Z,1.87
2019-04-10T13:14:55.228Z,2.17
2019-04-10T13:17:24.750Z,2.43
2019-04-10T13:19:53.435Z,2.43
2019-04-10T13:22:22.258Z,1.73
2019-04-10T13:24:52.085Z,1.70
2019-04-10T13:27:20.876Z,2.03
2019-04-10T13:29:49.358Z,2.20
2019-04-10T13:32:18.321Z,2.40
2019-04-10T13:34:46.806Z,2.57
2019-04-10T13:37:15.774Z,2.43
2019-04-10T13:39:44.305Z,2.03
2019-04-10T13:42:12.863Z,2.17
2019-04-10T13:44:42.446Z,2.37
2019-04-10T13:47:10.978Z,2.27
2019-04-10T13:49:39.473Z,2.23
2019-04-10T13:52:07.928Z,2.10
2019-04-10T13:54:36.828Z,2.23
2019-04-10T13:57:05.693Z,2.10
2019-04-10T13:59:35.186Z,2.17
2019-04-10T14:02:04.842Z,2.00
2019-04-10T14:04:33.426Z,1.83
2019-04-10T14:07:01.975Z,2.40
2019-04-10T14:09:40.583Z,1.90
2019-04-10T14:12:01.672Z,1.90
2019-04-10T14:14:30.935Z,1.97
2019-04-10T14:16:59.467Z,1.97
2019-04-10T14:19:29.851Z,1.97
2019-04-10T14:21:59.637Z,2.07
2019-04-10T14:24:39.493Z,2.23
2019-04-10T14:27:21.257Z,2.10
2019-04-10T14:29:51.055Z,1.87
2019-04-10T14:32:31.326Z,2.00
2019-04-10T14:35:01.039Z,2.03
2019-04-10T14:37:29.647Z,2.70
2019-04-10T14:39:58.416Z,2.13
2019-04-10T14:42:26.910Z,2.37
2019-04-10T14:44:55.395Z,2.40
2019-04-10T14:47:25.404Z,2.40
2019-04-10T14:49:54.893Z,2.40
2019-04-10T14:52:25.382Z,2.40
2019-04-10T14:54:54.407Z,2.37
2019-04-10T14:57:23.173Z,2.10
2019-04-10T14:59:52.519Z,1.83
2019-04-10T15:02:22.270Z,2.20
2019-04-10T15:04:51.288Z,2.13
2019-04-10T15:07:19.795Z,2.00
2019-04-10T15:09:48.327Z,2.20
2019-04-10T15:12:16.799Z,2.00
2019-04-10T15:14:45.884Z,2.30
2019-04-10T15:17:14.733Z,1.97
2019-04-10T15:19:43.276Z,1.90
2019-04-10T15:22:11.748Z,2.23
2019-04-10T15:24:40.220Z,1.93
2019-04-10T15:27:08.961Z,2.00
2019-04-10T15:29:38.582Z,1.90
2019-04-10T15:32:08.475Z,1.83
2019-04-10T15:34:37.553Z,1.77
2019-04-10T15:37:06.841Z,2.07
2019-04-10T15:39:38.161Z,1.80
2019-04-10T15:42:05.853Z,1.53
2019-04-10T15:44:34.560Z,2.10
2019-04-10T15:47:14.611Z,1.80
2019-04-10T15:49:34.476Z,1.70
2019-04-10T15:52:03.694Z,1.47
2019-04-10T15:54:32.505Z,1.33
2019-04-10T15:57:02.503Z,2.03
2019-04-10T15:59:32.262Z,1.57
2019-04-10T16:02:01.496Z,2.20
2019-04-10T16:04:30.050Z,1.53
2019-04-10T16:06:58.588Z,1.93
2019-04-10T16:09:27.380Z,1.63
2019-04-10T16:12:00.540Z,1.20
2019-04-10T16:14:30.343Z,1.93
2019-04-10T16:17:19.244Z,1.60
2019-04-10T16:20:17.545Z,2.20
2019-04-10T16:22:51.816Z,1.63
2019-04-10T16:25:27.673Z,1.40
2019-04-10T16:27:56.282Z,1.20
2019-04-10T16:30:26.277Z,1.40
2019-04-10T16:32:54.877Z,1.30
2019-04-10T16:35:23.350Z,1.40
2019-04-10T16:37:51.842Z,1.40
2019-04-10T16:40:20.714Z,1.50
2019-04-10T16:42:49.285Z,1.50
2019-04-10T16:45:17.781Z,1.43
2019-04-10T16:47:46.342Z,1.63
2019-04-10T16:50:14.790Z,1.43
2019-04-10T16:52:43.262Z,1.57
2019-04-10T16:55:11.749Z,1.73
2019-04-10T16:57:40.229Z,1.80
2019-04-10T17:00:08.951Z,1.67
2019-04-10T17:02:37.340Z,1.67
2019-04-10T17:05:06.545Z,1.90
2019-04-10T17:07:35.037Z,1.70
2019-04-10T17:10:13.104Z,2.10
2019-04-10T17:12:35.750Z,2.07
2019-04-10T17:15:06.175Z,1.70
2019-04-10T17:17:34.659Z,2.03
2019-04-10T17:20:04.156Z,2.20
2019-04-10T17:22:42.054Z,1.70
2019-04-10T17:25:04.103Z,2.67
2019-04-10T17:27:32.529Z,2.30
2019-04-10T17:30:01.345Z,2.00
2019-04-10T17:32:31.124Z,1.90
2019-04-10T17:34:59.867Z,1.40
2019-04-10T17:37:29.716Z,2.60
2019-04-10T17:39:58.214Z,1.70
2019-04-10T17:42:26.714Z,2.03
2019-04-10T17:44:56.182Z,1.73
2019-04-10T17:47:25.131Z,1.70
2019-04-10T17:49:53.982Z,2.00
2019-04-10T17:52:22.897Z,1.70
2019-04-10T17:54:51.401Z,2.03
2019-04-10T17:57:21.003Z,2.27
2019-04-10T17:59:49.627Z,2.33
2019-04-10T18:02:18.117Z,2.50
2019-04-10T18:04:46.595Z,2.97
2019-04-10T18:07:16.204Z,2.20
2019-04-10T18:09:44.687Z,2.70
2019-04-10T18:12:14.328Z,2.27
2019-04-10T18:14:44.025Z,3.03
2019-04-10T18:17:12.594Z,2.70
2019-04-10T18:19:41.982Z,2.90
2019-04-10T18:22:10.545Z,2.80
2019-04-10T18:24:40.126Z,2.63
2019-04-10T18:27:08.729Z,3.47
2019-04-10T18:29:37.250Z,2.70
2019-04-10T18:32:06.055Z,3.20
2019-04-10T18:34:35.454Z,2.73
2019-04-10T18:37:05.397Z,3.00
2019-04-10T18:39:34.669Z,3.60
2019-04-10T18:42:03.538Z,2.47
2019-04-10T18:44:33.076Z,3.37
2019-04-10T18:47:02.805Z,2.47
2019-04-10T18:49:31.731Z,2.07
2019-04-10T18:52:00.563Z,3.00
2019-04-10T18:54:29.832Z,2.77
2019-04-10T18:56:58.315Z,2.67
2019-04-10T18:59:44.911Z,3.50
2019-04-10T19:02:23.775Z,3.10
2019-04-10T19:04:57.117Z,2.73
2019-04-10T19:07:25.980Z,3.20
2019-04-10T19:09:54.699Z,3.10
2019-04-10T19:12:24.402Z,3.20
2019-04-10T19:14:52.985Z,3.03
2019-04-10T19:17:22.452Z,3.17
2019-04-10T19:19:51.081Z,3.23
2019-04-10T19:22:20.357Z,2.83
2019-04-10T19:24:50.289Z,3.60
2019-04-10T19:27:20.085Z,3.33
2019-04-10T19:29:48.792Z,3.30
2019-04-10T19:32:29.979Z,4.00
2019-04-10T19:34:57.488Z,3.70
2019-04-10T19:37:26.278Z,3.60
2019-04-10T19:39:54.795Z,4.10
2019-04-10T19:42:23.253Z,4.77
2019-04-10T19:44:51.759Z,3.70
2019-04-10T19:47:20.299Z,3.70
2019-04-10T19:49:48.792Z,4.17
2019-04-10T19:52:17.243Z,2.70
2019-04-10T19:54:45.735Z,3.70
2019-04-10T19:57:15.305Z,3.30
2019-04-10T19:59:44.112Z,3.70
2019-04-10T20:02:12.889Z,3.37
2019-04-10T20:04:42.921Z,4.20
2019-04-10T20:07:11.411Z,3.97
2019-04-10T20:09:40.963Z,4.67
2019-04-10T20:12:10.575Z,4.77
2019-04-10T20:14:39.089Z,3.50
2019-04-10T20:17:08.021Z,4.17
2019-04-10T20:19:36.636Z,4.17
2019-04-10T20:22:06.168Z,4.27
2019-04-10T20:24:34.770Z,3.63
2019-04-10T20:27:03.548Z,4.33
2019-04-10T20:29:32.253Z,4.17
2019-04-10T20:32:01.715Z,4.10
2019-04-10T20:34:30.298Z,4.63
2019-04-10T20:37:02.717Z,5.40
2019-04-10T20:39:29.513Z,4.80
2019-04-10T20:41:59.379Z,4.47
2019-04-10T20:44:29.117Z,5.30
2019-04-10T20:46:58.303Z,4.70
2019-04-10T20:49:28.124Z,4.17
2019-04-10T20:51:57.742Z,3.67
2019-04-10T20:54:26.270Z,4.27
2019-04-10T20:56:54.920Z,4.40
2019-04-10T20:59:24.398Z,4.33
2019-04-10T21:01:53.582Z,4.00
2019-04-10T21:04:23.497Z,3.57
2019-04-10T21:06:52.288Z,4.60
2019-04-10T21:09:20.787Z,5.20
2019-04-10T21:11:59.784Z,3.47
2019-04-10T21:14:19.421Z,3.93
2019-04-10T21:16:47.883Z,4.33
2019-04-10T21:19:16.489Z,3.50
2019-04-10T21:21:44.932Z,3.30
2019-04-10T21:24:13.454Z,3.90
2019-04-10T21:26:41.861Z,3.53
2019-04-10T21:29:16.261Z,3.63
2019-04-10T21:31:52.647Z,4.33
2019-04-10T21:34:26.341Z,4.00
2019-04-10T21:36:54.821Z,4.40
2019-04-10T21:39:23.495Z,3.90
2019-04-10T21:41:51.963Z,3.60
2019-04-10T21:44:20.500Z,4.50
2019-04-10T21:46:48.943Z,4.30
2019-04-10T21:49:17.733Z,4.50
2019-04-10T21:51:46.182Z,3.47
2019-04-10T21:54:14.651Z,3.50
2019-04-10T21:56:43.207Z,4.80
2019-04-10T21:59:11.677Z,3.97
2019-04-10T22:01:40.335Z,4.90
2019-04-10T22:04:08.763Z,4.17
2019-04-10T22:07:05.539Z,4.53
2019-04-10T22:09:52.917Z,4.57
2019-04-10T22:12:31.130Z,4.30
2019-04-10T22:14:56.099Z,4.20
2019-04-10T22:17:24.836Z,4.10
2019-04-10T22:19:53.302Z,4.03
2019-04-10T22:22:22.506Z,3.60
2019-04-10T22:24:51.011Z,5.03
2019-04-10T22:27:19.479Z,5.00
2019-04-10T22:29:47.941Z,3.37
2019-04-10T22:32:16.514Z,4.17
2019-04-10T22:34:44.937Z,4.87
2019-04-10T22:37:15.510Z,5.17
2019-04-10T22:39:43.796Z,4.63
2019-04-10T22:42:12.952Z,4.00
2019-04-10T22:44:45.210Z,4.50
2019-04-10T22:47:11.625Z,4.23
2019-04-10T22:49:40.100Z,4.53
2019-04-10T22:52:08.894Z,3.70
2019-04-10T22:54:37.430Z,4.43
2019-04-10T22:57:06.884Z,4.40
2019-04-10T22:59:35.472Z,4.73
2019-04-10T23:02:10.499Z,4.77
2019-04-10T23:04:34.935Z,5.03
2019-04-10T23:07:03.971Z,3.73
2019-04-10T23:09:32.640Z,3.90
2019-04-10T23:12:02.227Z,4.23
2019-04-10T23:14:31.154Z,4.57
2019-04-10T23:17:00.163Z,4.30
2019-04-10T23:19:29.914Z,4.73
2019-04-10T23:21:58.538Z,4.90
2019-04-10T23:24:27.701Z,4.30
2019-04-10T23:26:57.506Z,4.53
2019-04-10T23:29:26.370Z,4.57
2019-04-10T23:31:54.876Z,4.87
2019-04-10T23:34:23.348Z,4.50
2019-04-10T23:36:51.840Z,4.70
2019-04-10T23:39:20.312Z,3.60
2019-04-10T23:41:50.997Z,3.70
2019-04-10T23:44:18.956Z,4.70
2019-04-10T23:46:47.532Z,4.57
2019-04-10T23:49:15.983Z,4.83
2019-04-10T23:51:45.409Z,4.33
2019-04-10T23:54:15.156Z,4.30
2019-04-10T23:56:45.069Z,4.40
2019-04-10T23:59:14.859Z,5.10
